sensor_id;sensor_type;location;lat;lon;timestamp;P1;durP1;ratioP1;P2;durP2;ratioP2
29662;SDS011;16578;53.266;7.920;2023-05-10T00:01:47;11.38;;;10.38;;
29662;SDS011;16578;53.266;7.920;2023-05-10T00:04:13;11.43;;;10.32;;
29662;SDS011;16578;53.266;7.920;2023-05-10T00:06:38;11.38;;;10.30;;
29662;SDS011;16578;53.266;7.920;2023-05-10T00:09:04;10.43;;;9.43;;
29662;SDS011;16578;53.266;7.920;2023-05-10T00:11:29;10.82;;;9.77;;
29662;SDS011;16578;53.266;7.920;2023-05-10T00:13:55;11.23;;;10.02;;
29662;SDS011;16578;53.266;7.920;2023-05-10T00:16:20;10.43;;;9.43;;
29662;SDS011;16578;53.266;7.920;2023-05-10T00:18:46;10.88;;;9.77;;
29662;SDS011;16578;53.266;7.920;2023-05-10T00:21:11;11.77;;;10.57;;
29662;SDS011;16578;53.266;7.920;2023-05-10T00:23:37;12.00;;;9.80;;
29662;SDS011;16578;53.266;7.920;2023-05-10T00:26:03;10.13;;;9.23;;
29662;SDS011;16578;53.266;7.920;2023-05-10T00:28:28;10.95;;;9.70;;
29662;SDS011;16578;53.266;7.920;2023-05-10T00:30:54;10.40;;;9.40;;
29662;SDS011;16578;53.266;7.920;2023-05-10T00:33:20;9.65;;;8.77;;
29662;SDS011;16578;53.266;7.920;2023-05-10T00:35:46;10.20;;;9.20;;
29662;SDS011;16578;53.266;7.920;2023-05-10T00:38:11;10.55;;;9.45;;
29662;SDS011;16578;53.266;7.920;2023-05-10T00:40:37;10.48;;;9.45;;
29662;SDS011;16578;53.266;7.920;2023-05-10T00:43:03;10.20;;;9.30;;
29662;SDS011;16578;53.266;7.920;2023-05-10T00:45:29;10.02;;;9.02;;
29662;SDS011;16578;53.266;7.920;2023-05-10T00:47:57;10.20;;;9.20;;
29662;SDS011;16578;53.266;7.920;2023-05-10T00:50:24;9.98;;;9.07;;
29662;SDS011;16578;53.266;7.920;2023-05-10T00:52:50;10.32;;;9.32;;
29662;SDS011;16578;53.266;7.920;2023-05-10T00:55:16;10.50;;;9.50;;
29662;SDS011;16578;53.266;7.920;2023-05-10T00:57:43;11.50;;;10.40;;
29662;SDS011;16578;53.266;7.920;2023-05-10T01:00:09;11.35;;;10.35;;
29662;SDS011;16578;53.266;7.920;2023-05-10T01:02:36;11.10;;;9.98;;
29662;SDS011;16578;53.266;7.920;2023-05-10T01:05:01;11.55;;;10.50;;
29662;SDS011;16578;53.266;7.920;2023-05-10T01:07:28;11.13;;;10.13;;
29662;SDS011;16578;53.266;7.920;2023-05-10T01:09:54;11.57;;;10.48;;
29662;SDS011;16578;53.266;7.920;2023-05-10T01:12:20;10.90;;;9.85;;
29662;SDS011;16578;53.266;7.920;2023-05-10T01:14:46;11.07;;;10.07;;
29662;SDS011;16578;53.266;7.920;2023-05-10T01:17:12;11.23;;;10.20;;
29662;SDS011;16578;53.266;7.920;2023-05-10T01:19:39;12.20;;;11.00;;
29662;SDS011;16578;53.266;7.920;2023-05-10T01:30:50;12.38;;;10.25;;
29662;SDS011;16578;53.266;7.920;2023-05-10T01:39:11;10.27;;;9.27;;
29662;SDS011;16578;53.266;7.920;2023-05-10T01:41:52;9.80;;;8.93;;
29662;SDS011;16578;53.266;7.920;2023-05-10T01:44:31;10.35;;;9.35;;
29662;SDS011;16578;53.266;7.920;2023-05-10T01:47:21;10.35;;;9.35;;
29662;SDS011;16578;53.266;7.920;2023-05-10T01:50:01;9.15;;;8.25;;
29662;SDS011;16578;53.266;7.920;2023-05-10T01:52:42;9.23;;;7.90;;
29662;SDS011;16578;53.266;7.920;2023-05-10T01:55:11;7.25;;;6.63;;
29662;SDS011;16578;53.266;7.920;2023-05-10T01:57:40;6.78;;;6.07;;
29662;SDS011;16578;53.266;7.920;2023-05-10T02:02:39;5.28;;;3.92;;
29662;SDS011;16578;53.266;7.920;2023-05-10T02:05:07;4.30;;;3.80;;
29662;SDS011;16578;53.266;7.920;2023-05-10T02:07:34;4.50;;;3.38;;
29662;SDS011;16578;53.266;7.920;2023-05-10T02:10:01;4.57;;;3.58;;
29662;SDS011;16578;53.266;7.920;2023-05-10T02:12:29;4.15;;;3.28;;
29662;SDS011;16578;53.266;7.920;2023-05-10T02:14:56;3.83;;;3.42;;
29662;SDS011;16578;53.266;7.920;2023-05-10T02:17:23;3.40;;;3.13;;
29662;SDS011;16578;53.266;7.920;2023-05-10T02:19:50;3.60;;;3.30;;
29662;SDS011;16578;53.266;7.920;2023-05-10T02:22:17;3.65;;;3.35;;
29662;SDS011;16578;53.266;7.920;2023-05-10T02:24:44;3.38;;;3.08;;
29662;SDS011;16578;53.266;7.920;2023-05-10T02:27:10;3.40;;;3.10;;
29662;SDS011;16578;53.266;7.920;2023-05-10T02:29:38;5.88;;;2.90;;
29662;SDS011;16578;53.266;7.920;2023-05-10T02:32:05;4.13;;;3.15;;
29662;SDS011;16578;53.266;7.920;2023-05-10T02:34:34;2.92;;;2.72;;
29662;SDS011;16578;53.266;7.920;2023-05-10T02:37:01;3.13;;;2.90;;
29662;SDS011;16578;53.266;7.920;2023-05-10T02:39:28;3.10;;;2.80;;
29662;SDS011;16578;53.266;7.920;2023-05-10T02:41:54;2.85;;;2.65;;
29662;SDS011;16578;53.266;7.920;2023-05-10T02:44:21;3.63;;;3.33;;
29662;SDS011;16578;53.266;7.920;2023-05-10T02:46:48;4.82;;;3.80;;
29662;SDS011;16578;53.266;7.920;2023-05-10T02:49:14;4.95;;;4.50;;
29662;SDS011;16578;53.266;7.920;2023-05-10T02:51:41;5.72;;;5.22;;
29662;SDS011;16578;53.266;7.920;2023-05-10T02:54:15;6.35;;;5.75;;
29662;SDS011;16578;53.266;7.920;2023-05-10T02:56:51;6.35;;;5.82;;
29662;SDS011;16578;53.266;7.920;2023-05-10T02:59:22;7.00;;;6.40;;
29662;SDS011;16578;53.266;7.920;2023-05-10T03:01:47;7.30;;;6.60;;
29662;SDS011;16578;53.266;7.920;2023-05-10T03:04:13;8.15;;;7.35;;
29662;SDS011;16578;53.266;7.920;2023-05-10T03:06:38;7.65;;;6.70;;
29662;SDS011;16578;53.266;7.920;2023-05-10T03:09:05;7.35;;;6.72;;
29662;SDS011;16578;53.266;7.920;2023-05-10T03:14:30;8.23;;;7.47;;
29662;SDS011;16578;53.266;7.920;2023-05-10T03:17:06;8.23;;;7.53;;
29662;SDS011;16578;53.266;7.920;2023-05-10T03:20:03;8.63;;;7.88;;
29662;SDS011;16578;53.266;7.920;2023-05-10T03:22:41;8.73;;;7.82;;
29662;SDS011;16578;53.266;7.920;2023-05-10T03:25:11;8.57;;;7.78;;
29662;SDS011;16578;53.266;7.920;2023-05-10T03:27:39;9.20;;;8.25;;
29662;SDS011;16578;53.266;7.920;2023-05-10T03:30:10;8.88;;;7.97;;
29662;SDS011;16578;53.266;7.920;2023-05-10T03:32:37;9.45;;;8.55;;
29662;SDS011;16578;53.266;7.920;2023-05-10T03:35:09;11.30;;;9.02;;
29662;SDS011;16578;53.266;7.920;2023-05-10T03:37:36;9.32;;;8.50;;
29662;SDS011;16578;53.266;7.920;2023-05-10T03:40:02;10.18;;;8.70;;
29662;SDS011;16578;53.266;7.920;2023-05-10T03:42:28;9.30;;;8.40;;
29662;SDS011;16578;53.266;7.920;2023-05-10T03:44:54;7.97;;;7.25;;
29662;SDS011;16578;53.266;7.920;2023-05-10T03:47:20;5.90;;;5.35;;
29662;SDS011;16578;53.266;7.920;2023-05-10T03:49:45;6.95;;;5.10;;
29662;SDS011;16578;53.266;7.920;2023-05-10T03:52:11;4.78;;;4.38;;
29662;SDS011;16578;53.266;7.920;2023-05-10T03:54:36;4.75;;;4.35;;
29662;SDS011;16578;53.266;7.920;2023-05-10T03:57:02;4.57;;;4.18;;
29662;SDS011;16578;53.266;7.920;2023-05-10T03:59:28;5.18;;;4.68;;
29662;SDS011;16578;53.266;7.920;2023-05-10T04:01:54;4.88;;;4.45;;
29662;SDS011;16578;53.266;7.920;2023-05-10T04:04:20;5.05;;;4.65;;
29662;SDS011;16578;53.266;7.920;2023-05-10T04:06:46;5.28;;;4.60;;
29662;SDS011;16578;53.266;7.920;2023-05-10T04:09:12;5.82;;;5.30;;
29662;SDS011;16578;53.266;7.920;2023-05-10T04:11:38;6.47;;;5.88;;
29662;SDS011;16578;53.266;7.920;2023-05-10T04:14:04;6.05;;;5.47;;
29662;SDS011;16578;53.266;7.920;2023-05-10T04:16:29;6.03;;;5.53;;
29662;SDS011;16578;53.266;7.920;2023-05-10T04:18:55;5.88;;;5.38;;
29662;SDS011;16578;53.266;7.920;2023-05-10T04:21:21;5.88;;;5.38;;
29662;SDS011;16578;53.266;7.920;2023-05-10T04:23:46;5.18;;;4.75;;
29662;SDS011;16578;53.266;7.920;2023-05-10T04:26:12;5.82;;;5.32;;
29662;SDS011;16578;53.266;7.920;2023-05-10T04:28:38;6.25;;;5.38;;
29662;SDS011;16578;53.266;7.920;2023-05-10T04:31:07;6.07;;;5.47;;
29662;SDS011;16578;53.266;7.920;2023-05-10T04:33:33;6.03;;;5.43;;
29662;SDS011;16578;53.266;7.920;2023-05-10T04:36:00;6.47;;;5.85;;
29662;SDS011;16578;53.266;7.920;2023-05-10T04:38:26;5.95;;;5.45;;
29662;SDS011;16578;53.266;7.920;2023-05-10T04:40:51;6.38;;;5.88;;
29662;SDS011;16578;53.266;7.920;2023-05-10T04:43:17;6.47;;;5.88;;
29662;SDS011;16578;53.266;7.920;2023-05-10T04:45:43;6.03;;;5.53;;
29662;SDS011;16578;53.266;7.920;2023-05-10T04:48:08;6.60;;;5.90;;
29662;SDS011;16578;53.266;7.920;2023-05-10T04:50:34;6.47;;;5.88;;
29662;SDS011;16578;53.266;7.920;2023-05-10T04:53:00;6.47;;;5.88;;
29662;SDS011;16578;53.266;7.920;2023-05-10T04:55:25;7.13;;;6.43;;
29662;SDS011;16578;53.266;7.920;2023-05-10T04:57:51;7.35;;;6.72;;
29662;SDS011;16578;53.266;7.920;2023-05-10T05:00:17;7.97;;;6.75;;
29662;SDS011;16578;53.266;7.920;2023-05-10T05:02:43;8.05;;;7.35;;
29662;SDS011;16578;53.266;7.920;2023-05-10T05:05:10;8.38;;;7.68;;
29662;SDS011;16578;53.266;7.920;2023-05-10T05:07:36;8.77;;;7.93;;
29662;SDS011;16578;53.266;7.920;2023-05-10T05:10:03;8.50;;;7.80;;
29662;SDS011;16578;53.266;7.920;2023-05-10T05:12:32;8.13;;;7.43;;
29662;SDS011;16578;53.266;7.920;2023-05-10T05:14:58;8.00;;;7.20;;
29662;SDS011;16578;53.266;7.920;2023-05-10T05:17:23;7.82;;;7.03;;
29662;SDS011;16578;53.266;7.920;2023-05-10T05:19:49;8.07;;;7.43;;
29662;SDS011;16578;53.266;7.920;2023-05-10T05:22:14;8.32;;;7.57;;
29662;SDS011;16578;53.266;7.920;2023-05-10T05:24:40;7.70;;;6.95;;
29662;SDS011;16578;53.266;7.920;2023-05-10T05:27:05;8.40;;;7.60;;
29662;SDS011;16578;53.266;7.920;2023-05-10T05:29:31;7.75;;;6.95;;
29662;SDS011;16578;53.266;7.920;2023-05-10T05:31:57;8.80;;;7.93;;
29662;SDS011;16578;53.266;7.920;2023-05-10T05:34:23;8.88;;;7.75;;
29662;SDS011;16578;53.266;7.920;2023-05-10T05:36:49;8.40;;;7.60;;
29662;SDS011;16578;53.266;7.920;2023-05-10T05:39:15;9.18;;;8.27;;
29662;SDS011;16578;53.266;7.920;2023-05-10T05:41:40;8.32;;;7.53;;
29662;SDS011;16578;53.266;7.920;2023-05-10T05:44:07;7.97;;;7.28;;
29662;SDS011;16578;53.266;7.920;2023-05-10T05:46:32;8.88;;;7.65;;
29662;SDS011;16578;53.266;7.920;2023-05-10T05:48:58;8.07;;;7.38;;
29662;SDS011;16578;53.266;7.920;2023-05-10T05:51:23;8.27;;;7.57;;
29662;SDS011;16578;53.266;7.920;2023-05-10T05:53:49;7.75;;;7.10;;
29662;SDS011;16578;53.266;7.920;2023-05-10T05:56:14;7.47;;;6.78;;
29662;SDS011;16578;53.266;7.920;2023-05-10T05:58:40;8.02;;;7.32;;
29662;SDS011;16578;53.266;7.920;2023-05-10T06:01:05;7.70;;;7.00;;
29662;SDS011;16578;53.266;7.920;2023-05-10T06:03:31;7.50;;;6.80;;
29662;SDS011;16578;53.266;7.920;2023-05-10T06:05:57;6.90;;;6.30;;
29662;SDS011;16578;53.266;7.920;2023-05-10T06:08:23;7.22;;;6.57;;
29662;SDS011;16578;53.266;7.920;2023-05-10T06:10:48;7.10;;;6.47;;
29662;SDS011;16578;53.266;7.920;2023-05-10T06:13:14;7.13;;;6.53;;
29662;SDS011;16578;53.266;7.920;2023-05-10T06:15:40;7.82;;;7.15;;
29662;SDS011;16578;53.266;7.920;2023-05-10T06:18:06;7.32;;;6.63;;
29662;SDS011;16578;53.266;7.920;2023-05-10T06:20:31;7.00;;;6.30;;
29662;SDS011;16578;53.266;7.920;2023-05-10T06:22:57;7.55;;;6.95;;
29662;SDS011;16578;53.266;7.920;2023-05-10T06:25:23;7.15;;;6.55;;
29662;SDS011;16578;53.266;7.920;2023-05-10T06:27:48;6.85;;;6.25;;
29662;SDS011;16578;53.266;7.920;2023-05-10T06:30:14;6.82;;;6.22;;
29662;SDS011;16578;53.266;7.920;2023-05-10T06:32:40;7.03;;;6.43;;
29662;SDS011;16578;53.266;7.920;2023-05-10T06:35:06;6.88;;;6.35;;
29662;SDS011;16578;53.266;7.920;2023-05-10T06:37:32;7.28;;;6.57;;
29662;SDS011;16578;53.266;7.920;2023-05-10T06:39:59;7.88;;;7.20;;
29662;SDS011;16578;53.266;7.920;2023-05-10T06:42:25;7.03;;;6.40;;
29662;SDS011;16578;53.266;7.920;2023-05-10T06:44:52;6.38;;;5.88;;
29662;SDS011;16578;53.266;7.920;2023-05-10T06:47:18;7.47;;;6.82;;
29662;SDS011;16578;53.266;7.920;2023-05-10T06:49:43;7.70;;;7.00;;
29662;SDS011;16578;53.266;7.920;2023-05-10T06:52:09;8.30;;;7.60;;
29662;SDS011;16578;53.266;7.920;2023-05-10T06:54:34;8.95;;;8.05;;
29662;SDS011;16578;53.266;7.920;2023-05-10T06:57:00;9.48;;;8.57;;
29662;SDS011;16578;53.266;7.920;2023-05-10T06:59:25;8.07;;;7.30;;
29662;SDS011;16578;53.266;7.920;2023-05-10T07:01:51;9.40;;;8.50;;
29662;SDS011;16578;53.266;7.920;2023-05-10T07:04:16;9.40;;;8.48;;
29662;SDS011;16578;53.266;7.920;2023-05-10T07:06:42;8.95;;;8.05;;
29662;SDS011;16578;53.266;7.920;2023-05-10T07:09:08;8.70;;;7.85;;
29662;SDS011;16578;53.266;7.920;2023-05-10T07:11:34;8.90;;;8.00;;
29662;SDS011;16578;53.266;7.920;2023-05-10T07:14:00;9.48;;;8.48;;
29662;SDS011;16578;53.266;7.920;2023-05-10T07:16:25;8.95;;;8.13;;
29662;SDS011;16578;53.266;7.920;2023-05-10T07:18:51;8.02;;;7.25;;
29662;SDS011;16578;53.266;7.920;2023-05-10T07:21:18;7.85;;;7.15;;
29662;SDS011;16578;53.266;7.920;2023-05-10T07:23:43;8.55;;;7.65;;
29662;SDS011;16578;53.266;7.920;2023-05-10T07:26:09;7.50;;;6.90;;
29662;SDS011;16578;53.266;7.920;2023-05-10T07:28:35;7.80;;;7.10;;
29662;SDS011;16578;53.266;7.920;2023-05-10T07:31:02;7.30;;;6.60;;
29662;SDS011;16578;53.266;7.920;2023-05-10T07:33:27;6.90;;;6.25;;
29662;SDS011;16578;53.266;7.920;2023-05-10T07:35:53;7.10;;;6.40;;
29662;SDS011;16578;53.266;7.920;2023-05-10T07:38:18;6.25;;;5.75;;
29662;SDS011;16578;53.266;7.920;2023-05-10T07:40:44;8.65;;;6.03;;
29662;SDS011;16578;53.266;7.920;2023-05-10T07:43:10;5.38;;;4.88;;
29662;SDS011;16578;53.266;7.920;2023-05-10T07:45:35;4.53;;;4.15;;
29662;SDS011;16578;53.266;7.920;2023-05-10T07:48:01;4.10;;;3.70;;
29662;SDS011;16578;53.266;7.920;2023-05-10T07:50:26;3.95;;;3.40;;
29662;SDS011;16578;53.266;7.920;2023-05-10T07:52:52;3.72;;;3.42;;
29662;SDS011;16578;53.266;7.920;2023-05-10T07:55:18;3.90;;;3.60;;
29662;SDS011;16578;53.266;7.920;2023-05-10T07:57:45;3.72;;;3.42;;
29662;SDS011;16578;53.266;7.920;2023-05-10T08:00:16;3.88;;;3.47;;
29662;SDS011;16578;53.266;7.920;2023-05-10T08:02:43;4.07;;;3.78;;
29662;SDS011;16578;53.266;7.920;2023-05-10T08:05:08;3.53;;;3.25;;
29662;SDS011;16578;53.266;7.920;2023-05-10T08:07:34;3.70;;;3.42;;
29662;SDS011;16578;53.266;7.920;2023-05-10T08:10:00;3.70;;;3.30;;
29662;SDS011;16578;53.266;7.920;2023-05-10T08:12:26;3.60;;;3.30;;
29662;SDS011;16578;53.266;7.920;2023-05-10T08:14:51;3.42;;;3.20;;
29662;SDS011;16578;53.266;7.920;2023-05-10T08:17:17;3.88;;;3.40;;
29662;SDS011;16578;53.266;7.920;2023-05-10T08:19:42;3.45;;;3.20;;
29662;SDS011;16578;53.266;7.920;2023-05-10T08:22:08;3.58;;;3.28;;
29662;SDS011;16578;53.266;7.920;2023-05-10T08:24:34;3.38;;;2.55;;
29662;SDS011;16578;53.266;7.920;2023-05-10T08:27:03;2.90;;;2.70;;
29662;SDS011;16578;53.266;7.920;2023-05-10T08:29:29;2.97;;;2.67;;
29662;SDS011;16578;53.266;7.920;2023-05-10T08:31:55;2.88;;;2.67;;
29662;SDS011;16578;53.266;7.920;2023-05-10T08:34:21;2.80;;;2.60;;
29662;SDS011;16578;53.266;7.920;2023-05-10T08:36:46;7.38;;;3.00;;
29662;SDS011;16578;53.266;7.920;2023-05-10T08:39:12;2.42;;;2.22;;
29662;SDS011;16578;53.266;7.920;2023-05-10T08:41:38;3.15;;;2.85;;
29662;SDS011;16578;53.266;7.920;2023-05-10T08:44:05;2.40;;;2.20;;
29662;SDS011;16578;53.266;7.920;2023-05-10T08:46:33;2.60;;;2.40;;
29662;SDS011;16578;53.266;7.920;2023-05-10T08:49:01;2.08;;;1.80;;
29662;SDS011;16578;53.266;7.920;2023-05-10T08:51:31;3.55;;;1.70;;
29662;SDS011;16578;53.266;7.920;2023-05-10T08:54:01;1.75;;;1.65;;
29662;SDS011;16578;53.266;7.920;2023-05-10T08:56:28;1.70;;;1.60;;
29662;SDS011;16578;53.266;7.920;2023-05-10T08:58:54;1.48;;;1.38;;
29662;SDS011;16578;53.266;7.920;2023-05-10T09:01:21;1.80;;;1.55;;
29662;SDS011;16578;53.266;7.920;2023-05-10T09:03:47;5.05;;;1.30;;
29662;SDS011;16578;53.266;7.920;2023-05-10T09:06:13;1.00;;;1.00;;
29662;SDS011;16578;53.266;7.920;2023-05-10T09:08:39;0.80;;;0.80;;
29662;SDS011;16578;53.266;7.920;2023-05-10T09:11:06;1.60;;;0.75;;
29662;SDS011;16578;53.266;7.920;2023-05-10T09:13:33;0.80;;;0.77;;
29662;SDS011;16578;53.266;7.920;2023-05-10T09:16:00;0.55;;;0.55;;
29662;SDS011;16578;53.266;7.920;2023-05-10T09:18:26;0.40;;;0.40;;
29662;SDS011;16578;53.266;7.920;2023-05-10T09:20:51;0.47;;;0.47;;
29662;SDS011;16578;53.266;7.920;2023-05-10T09:23:17;0.30;;;0.30;;
29662;SDS011;16578;53.266;7.920;2023-05-10T09:25:42;0.30;;;0.30;;
29662;SDS011;16578;53.266;7.920;2023-05-10T09:28:08;0.75;;;0.52;;
29662;SDS011;16578;53.266;7.920;2023-05-10T09:30:35;0.95;;;0.40;;
29662;SDS011;16578;53.266;7.920;2023-05-10T09:33:00;0.20;;;0.20;;
29662;SDS011;16578;53.266;7.920;2023-05-10T09:35:27;0.30;;;0.30;;
29662;SDS011;16578;53.266;7.920;2023-05-10T09:40:22;0.10;;;0.10;;
29662;SDS011;16578;53.266;7.920;2023-05-10T09:45:18;0.15;;;0.15;;
29662;SDS011;16578;53.266;7.920;2023-05-10T09:47:45;0.20;;;0.20;;
29662;SDS011;16578;53.266;7.920;2023-05-10T09:50:10;0.43;;;0.20;;
29662;SDS011;16578;53.266;7.920;2023-05-10T09:55:16;0.30;;;0.30;;
29662;SDS011;16578;53.266;7.920;2023-05-10T09:57:49;0.20;;;0.17;;
29662;SDS011;16578;53.266;7.920;2023-05-10T10:00:24;0.10;;;0.10;;
29662;SDS011;16578;53.266;7.920;2023-05-10T10:02:59;0.20;;;0.20;;
29662;SDS011;16578;53.266;7.920;2023-05-10T10:05:34;1.23;;;0.20;;
29662;SDS011;16578;53.266;7.920;2023-05-10T10:08:02;0.20;;;0.10;;
29662;SDS011;16578;53.266;7.920;2023-05-10T10:10:29;0.50;;;0.50;;
29662;SDS011;16578;53.266;7.920;2023-05-10T10:12:56;0.22;;;0.22;;
29662;SDS011;16578;53.266;7.920;2023-05-10T10:15:22;0.30;;;0.30;;
29662;SDS011;16578;53.266;7.920;2023-05-10T10:17:49;0.50;;;0.50;;
29662;SDS011;16578;53.266;7.920;2023-05-10T10:20:15;0.40;;;0.40;;
29662;SDS011;16578;53.266;7.920;2023-05-10T10:22:42;0.40;;;0.40;;
29662;SDS011;16578;53.266;7.920;2023-05-10T10:27:45;0.40;;;0.40;;
29662;SDS011;16578;53.266;7.920;2023-05-10T10:30:24;0.57;;;0.57;;
29662;SDS011;16578;53.266;7.920;2023-05-10T10:35:28;1.30;;;1.10;;
29662;SDS011;16578;53.266;7.920;2023-05-10T10:37:55;1.13;;;1.10;;
29662;SDS011;16578;53.266;7.920;2023-05-10T10:40:29;1.30;;;1.17;;
29662;SDS011;16578;53.266;7.920;2023-05-10T10:42:55;1.42;;;1.33;;
29662;SDS011;16578;53.266;7.920;2023-05-10T10:45:22;1.58;;;1.48;;
29662;SDS011;16578;53.266;7.920;2023-05-10T10:47:49;1.85;;;1.75;;
29662;SDS011;16578;53.266;7.920;2023-05-10T10:50:45;2.13;;;2.03;;
29662;SDS011;16578;53.266;7.920;2023-05-10T10:53:11;2.30;;;2.15;;
29662;SDS011;16578;53.266;7.920;2023-05-10T10:55:45;2.17;;;2.08;;
29662;SDS011;16578;53.266;7.920;2023-05-10T10:58:18;1.95;;;1.80;;
29662;SDS011;16578;53.266;7.920;2023-05-10T11:03:39;1.25;;;1.10;;
29662;SDS011;16578;53.266;7.920;2023-05-10T11:06:05;0.90;;;0.90;;
29662;SDS011;16578;53.266;7.920;2023-05-10T11:08:31;0.80;;;0.80;;
29662;SDS011;16578;53.266;7.920;2023-05-10T11:13:36;1.27;;;1.17;;
29662;SDS011;16578;53.266;7.920;2023-05-10T11:16:13;1.55;;;1.45;;
29662;SDS011;16578;53.266;7.920;2023-05-10T11:18:40;2.53;;;2.33;;
29662;SDS011;16578;53.266;7.920;2023-05-10T11:21:08;3.85;;;3.55;;
29662;SDS011;16578;53.266;7.920;2023-05-10T11:26:10;5.00;;;4.50;;
29662;SDS011;16578;53.266;7.920;2023-05-10T11:28:43;6.57;;;5.97;;
29662;SDS011;16578;53.266;7.920;2023-05-10T11:31:10;6.80;;;6.10;;
29662;SDS011;16578;53.266;7.920;2023-05-10T11:33:49;7.55;;;6.78;;
29662;SDS011;16578;53.266;7.920;2023-05-10T11:36:17;8.18;;;7.35;;
29662;SDS011;16578;53.266;7.920;2023-05-10T11:38:44;8.52;;;7.72;;
29662;SDS011;16578;53.266;7.920;2023-05-10T11:41:11;7.53;;;6.82;;
29662;SDS011;16578;53.266;7.920;2023-05-10T11:43:38;7.70;;;6.95;;
29662;SDS011;16578;53.266;7.920;2023-05-10T11:46:05;7.18;;;6.47;;
29662;SDS011;16578;53.266;7.920;2023-05-10T11:48:32;9.30;;;7.05;;
29662;SDS011;16578;53.266;7.920;2023-05-10T11:50:57;6.35;;;5.75;;
29662;SDS011;16578;53.266;7.920;2023-05-10T11:53:26;6.97;;;6.25;;
29662;SDS011;16578;53.266;7.920;2023-05-10T11:55:52;5.95;;;5.45;;
29662;SDS011;16578;53.266;7.920;2023-05-10T11:58:18;9.32;;;6.53;;
29662;SDS011;16578;53.266;7.920;2023-05-10T12:00:44;6.47;;;5.88;;
29662;SDS011;16578;53.266;7.920;2023-05-10T12:03:10;6.03;;;5.53;;
29662;SDS011;16578;53.266;7.920;2023-05-10T12:05:36;5.78;;;5.28;;
29662;SDS011;16578;53.266;7.920;2023-05-10T12:08:12;5.30;;;4.85;;
29662;SDS011;16578;53.266;7.920;2023-05-10T12:10:38;5.88;;;5.38;;
29662;SDS011;16578;53.266;7.920;2023-05-10T12:13:04;5.57;;;5.07;;
29662;SDS011;16578;53.266;7.920;2023-05-10T12:15:29;5.90;;;5.30;;
29662;SDS011;16578;53.266;7.920;2023-05-10T12:17:55;5.45;;;4.93;;
29662;SDS011;16578;53.266;7.920;2023-05-10T12:20:24;5.45;;;4.95;;
29662;SDS011;16578;53.266;7.920;2023-05-10T12:22:54;5.45;;;4.97;;
29662;SDS011;16578;53.266;7.920;2023-05-10T12:25:22;4.78;;;4.40;;
29662;SDS011;16578;53.266;7.920;2023-05-10T12:27:52;8.15;;;5.13;;
29662;SDS011;16578;53.266;7.920;2023-05-10T12:30:20;7.35;;;4.28;;
29662;SDS011;16578;53.266;7.920;2023-05-10T12:32:47;4.18;;;3.70;;
29662;SDS011;16578;53.266;7.920;2023-05-10T12:35:12;4.22;;;3.92;;
29662;SDS011;16578;53.266;7.920;2023-05-10T12:37:38;4.00;;;3.60;;
29662;SDS011;16578;53.266;7.920;2023-05-10T12:40:07;3.58;;;3.25;;
29662;SDS011;16578;53.266;7.920;2023-05-10T12:42:35;3.55;;;3.25;;
29662;SDS011;16578;53.266;7.920;2023-05-10T12:45:02;4.43;;;3.75;;
29662;SDS011;16578;53.266;7.920;2023-05-10T12:47:29;3.83;;;3.53;;
29662;SDS011;16578;53.266;7.920;2023-05-10T12:49:55;4.32;;;3.92;;
29662;SDS011;16578;53.266;7.920;2023-05-10T12:52:20;3.67;;;3.38;;
29662;SDS011;16578;53.266;7.920;2023-05-10T12:54:46;4.00;;;3.60;;
29662;SDS011;16578;53.266;7.920;2023-05-10T12:57:12;4.03;;;3.63;;
29662;SDS011;16578;53.266;7.920;2023-05-10T12:59:38;3.58;;;3.28;;
29662;SDS011;16578;53.266;7.920;2023-05-10T13:02:04;5.80;;;3.33;;
29662;SDS011;16578;53.266;7.920;2023-05-10T13:04:30;3.15;;;2.95;;
29662;SDS011;16578;53.266;7.920;2023-05-10T13:06:55;3.20;;;2.63;;
29662;SDS011;16578;53.266;7.920;2023-05-10T13:09:23;3.85;;;2.70;;
29662;SDS011;16578;53.266;7.920;2023-05-10T13:11:50;3.08;;;2.88;;
29662;SDS011;16578;53.266;7.920;2023-05-10T13:14:15;3.17;;;2.97;;
29662;SDS011;16578;53.266;7.920;2023-05-10T13:16:41;3.70;;;2.70;;
29662;SDS011;16578;53.266;7.920;2023-05-10T13:19:07;2.80;;;2.60;;
29662;SDS011;16578;53.266;7.920;2023-05-10T13:21:32;2.75;;;2.55;;
29662;SDS011;16578;53.266;7.920;2023-05-10T13:23:58;2.60;;;2.40;;
29662;SDS011;16578;53.266;7.920;2023-05-10T13:26:23;2.83;;;2.63;;
29662;SDS011;16578;53.266;7.920;2023-05-10T13:28:50;3.00;;;2.80;;
29662;SDS011;16578;53.266;7.920;2023-05-10T13:31:16;2.53;;;2.33;;
29662;SDS011;16578;53.266;7.920;2023-05-10T13:33:41;2.67;;;2.47;;
29662;SDS011;16578;53.266;7.920;2023-05-10T13:36:07;3.65;;;2.78;;
29662;SDS011;16578;53.266;7.920;2023-05-10T13:38:33;2.67;;;2.47;;
29662;SDS011;16578;53.266;7.920;2023-05-10T13:40:58;1.95;;;1.85;;
29662;SDS011;16578;53.266;7.920;2023-05-10T13:43:24;1.95;;;1.80;;
29662;SDS011;16578;53.266;7.920;2023-05-10T13:45:49;2.40;;;2.20;;
29662;SDS011;16578;53.266;7.920;2023-05-10T13:48:15;1.77;;;1.67;;
29662;SDS011;16578;53.266;7.920;2023-05-10T13:50:41;1.50;;;1.40;;
29662;SDS011;16578;53.266;7.920;2023-05-10T13:53:06;1.10;;;1.10;;
29662;SDS011;16578;53.266;7.920;2023-05-10T13:55:32;1.52;;;1.42;;
29662;SDS011;16578;53.266;7.920;2023-05-10T13:57:57;2.17;;;1.60;;
29662;SDS011;16578;53.266;7.920;2023-05-10T14:00:23;1.45;;;1.13;;
29662;SDS011;16578;53.266;7.920;2023-05-10T14:02:48;1.35;;;1.23;;
29662;SDS011;16578;53.266;7.920;2023-05-10T14:05:14;1.60;;;1.50;;
29662;SDS011;16578;53.266;7.920;2023-05-10T14:07:39;1.35;;;1.33;;
29662;SDS011;16578;53.266;7.920;2023-05-10T14:10:06;2.55;;;1.35;;
29662;SDS011;16578;53.266;7.920;2023-05-10T14:12:31;1.90;;;1.20;;
29662;SDS011;16578;53.266;7.920;2023-05-10T14:14:57;2.22;;;1.35;;
29662;SDS011;16578;53.266;7.920;2023-05-10T14:17:23;1.40;;;1.30;;
29662;SDS011;16578;53.266;7.920;2023-05-10T14:19:48;2.28;;;1.40;;
29662;SDS011;16578;53.266;7.920;2023-05-10T14:22:14;2.55;;;1.60;;
29662;SDS011;16578;53.266;7.920;2023-05-10T14:24:39;1.88;;;1.60;;
29662;SDS011;16578;53.266;7.920;2023-05-10T14:27:05;1.60;;;1.50;;
29662;SDS011;16578;53.266;7.920;2023-05-10T14:29:30;2.20;;;1.65;;
29662;SDS011;16578;53.266;7.920;2023-05-10T14:31:56;2.05;;;1.85;;
29662;SDS011;16578;53.266;7.920;2023-05-10T14:34:22;1.70;;;1.60;;
29662;SDS011;16578;53.266;7.920;2023-05-10T14:36:47;1.90;;;1.77;;
29662;SDS011;16578;53.266;7.920;2023-05-10T14:39:13;2.35;;;1.77;;
29662;SDS011;16578;53.266;7.920;2023-05-10T14:41:38;1.70;;;1.60;;
29662;SDS011;16578;53.266;7.920;2023-05-10T14:44:07;3.10;;;1.90;;
29662;SDS011;16578;53.266;7.920;2023-05-10T14:46:33;2.58;;;1.83;;
29662;SDS011;16578;53.266;7.920;2023-05-10T14:48:59;2.33;;;1.77;;
29662;SDS011;16578;53.266;7.920;2023-05-10T14:51:24;4.28;;;2.05;;
29662;SDS011;16578;53.266;7.920;2023-05-10T14:53:50;2.03;;;1.83;;
29662;SDS011;16578;53.266;7.920;2023-05-10T14:56:15;1.92;;;1.80;;
29662;SDS011;16578;53.266;7.920;2023-05-10T14:58:41;2.00;;;1.80;;
29662;SDS011;16578;53.266;7.920;2023-05-10T15:01:07;2.05;;;1.80;;
29662;SDS011;16578;53.266;7.920;2023-05-10T15:03:32;2.70;;;1.40;;
29662;SDS011;16578;53.266;7.920;2023-05-10T15:05:58;2.25;;;1.55;;
29662;SDS011;16578;53.266;7.920;2023-05-10T15:08:23;1.63;;;1.52;;
29662;SDS011;16578;53.266;7.920;2023-05-10T15:10:49;2.35;;;1.65;;
29662;SDS011;16578;53.266;7.920;2023-05-10T15:13:16;1.80;;;1.70;;
29662;SDS011;16578;53.266;7.920;2023-05-10T15:15:41;2.53;;;1.50;;
29662;SDS011;16578;53.266;7.920;2023-05-10T15:18:08;1.70;;;1.27;;
29662;SDS011;16578;53.266;7.920;2023-05-10T15:20:36;1.35;;;1.25;;
29662;SDS011;16578;53.266;7.920;2023-05-10T15:23:02;2.30;;;1.50;;
29662;SDS011;16578;53.266;7.920;2023-05-10T15:25:28;1.90;;;1.50;;